New Straitsville, Ohio
Current Conditions -  °F | °C
As of 12:53 PM on Thursday 29 Jan 2015 (Local Time) from KLHQ Reporting Station
Overcast Overcast  
Wind Chill: 35°   Ceiling: 3800
Heat Index: 41°   Visibility: 10mi
Dew Point: 33°   Wind: 10mph
Humidity: 73%   Direction: 200°SSW
Pressure: 29.82"   Gusts: NA
Location:  39.58°N, 82.24°W
Report Text: KLHQ 291753Z AUTO 20009KT 10SM OVC038 05/01 A2982 RMK AO2 SLP105 60007 T00500006 10056 21006 56025
Loading
Personal Weather Stations






























Interactive Weather Map New forecast layout! Learn more

10-Day Weather Forecast

Advertisements
Track Severe Weather on mobile